sensor_id;sensor_type;location;lat;lon;timestamp;P1;durP1;ratioP1;P2;durP2;ratioP2
36291;SDS011;22327;51.208;6.418;2023-09-18T00:01:47;6.60;;;5.10;;
36291;SDS011;22327;51.208;6.418;2023-09-18T00:04:48;7.53;;;5.00;;
36291;SDS011;22327;51.208;6.418;2023-09-18T00:07:48;5.90;;;5.13;;
36291;SDS011;22327;51.208;6.418;2023-09-18T00:10:49;5.97;;;4.53;;
36291;SDS011;22327;51.208;6.418;2023-09-18T00:13:52;9.88;;;5.15;;
36291;SDS011;22327;51.208;6.418;2023-09-18T00:16:53;7.18;;;5.78;;
36291;SDS011;22327;51.208;6.418;2023-09-18T00:19:53;7.55;;;5.30;;
36291;SDS011;22327;51.208;6.418;2023-09-18T00:22:54;9.75;;;5.80;;
36291;SDS011;22327;51.208;6.418;2023-09-18T00:25:55;7.38;;;5.68;;
36291;SDS011;22327;51.208;6.418;2023-09-18T00:28:56;8.77;;;5.53;;
36291;SDS011;22327;51.208;6.418;2023-09-18T00:31:56;7.50;;;5.47;;
36291;SDS011;22327;51.208;6.418;2023-09-18T00:34:57;8.13;;;5.25;;
36291;SDS011;22327;51.208;6.418;2023-09-18T00:37:57;8.07;;;5.38;;
36291;SDS011;22327;51.208;6.418;2023-09-18T00:40:58;8.68;;;5.43;;
36291;SDS011;22327;51.208;6.418;2023-09-18T00:43:58;5.82;;;5.22;;
36291;SDS011;22327;51.208;6.418;2023-09-18T00:46:59;6.47;;;5.88;;
36291;SDS011;22327;51.208;6.418;2023-09-18T00:49:59;6.38;;;5.78;;
36291;SDS011;22327;51.208;6.418;2023-09-18T00:53:00;8.18;;;5.63;;
36291;SDS011;22327;51.208;6.418;2023-09-18T00:56:03;7.95;;;5.78;;
36291;SDS011;22327;51.208;6.418;2023-09-18T00:59:04;7.35;;;5.38;;
36291;SDS011;22327;51.208;6.418;2023-09-18T01:02:04;9.02;;;6.53;;
36291;SDS011;22327;51.208;6.418;2023-09-18T01:05:06;8.60;;;6.15;;
36291;SDS011;22327;51.208;6.418;2023-09-18T01:08:06;7.68;;;6.35;;
36291;SDS011;22327;51.208;6.418;2023-09-18T01:11:10;9.68;;;6.00;;
36291;SDS011;22327;51.208;6.418;2023-09-18T01:17:25;7.70;;;6.10;;
36291;SDS011;22327;51.208;6.418;2023-09-18T01:20:26;6.95;;;6.07;;
36291;SDS011;22327;51.208;6.418;2023-09-18T01:23:27;9.43;;;5.68;;
36291;SDS011;22327;51.208;6.418;2023-09-18T01:26:28;11.15;;;5.65;;
36291;SDS011;22327;51.208;6.418;2023-09-18T01:29:28;6.43;;;5.63;;
36291;SDS011;22327;51.208;6.418;2023-09-18T01:32:30;8.10;;;5.70;;
36291;SDS011;22327;51.208;6.418;2023-09-18T01:35:32;10.47;;;6.60;;
36291;SDS011;22327;51.208;6.418;2023-09-18T01:38:34;9.20;;;6.07;;
36291;SDS011;22327;51.208;6.418;2023-09-18T01:41:36;6.78;;;5.22;;
36291;SDS011;22327;51.208;6.418;2023-09-18T01:44:38;8.43;;;5.00;;
36291;SDS011;22327;51.208;6.418;2023-09-18T01:47:39;6.70;;;6.00;;
36291;SDS011;22327;51.208;6.418;2023-09-18T01:50:39;11.73;;;6.30;;
36291;SDS011;22327;51.208;6.418;2023-09-18T01:53:40;8.13;;;5.85;;
36291;SDS011;22327;51.208;6.418;2023-09-18T01:56:41;9.38;;;5.68;;
36291;SDS011;22327;51.208;6.418;2023-09-18T01:59:41;12.68;;;5.80;;
36291;SDS011;22327;51.208;6.418;2023-09-18T02:02:42;6.07;;;5.13;;
36291;SDS011;22327;51.208;6.418;2023-09-18T02:05:42;8.85;;;5.93;;
36291;SDS011;22327;51.208;6.418;2023-09-18T02:08:43;6.78;;;5.53;;
36291;SDS011;22327;51.208;6.418;2023-09-18T02:11:44;6.45;;;5.47;;
36291;SDS011;22327;51.208;6.418;2023-09-18T02:14:46;9.88;;;5.60;;
36291;SDS011;22327;51.208;6.418;2023-09-18T02:17:46;8.32;;;5.78;;
36291;SDS011;22327;51.208;6.418;2023-09-18T02:20:47;7.85;;;5.95;;
36291;SDS011;22327;51.208;6.418;2023-09-18T02:23:49;8.60;;;6.03;;
36291;SDS011;22327;51.208;6.418;2023-09-18T02:26:51;9.23;;;6.15;;
36291;SDS011;22327;51.208;6.418;2023-09-18T02:29:51;8.90;;;5.60;;
36291;SDS011;22327;51.208;6.418;2023-09-18T02:32:53;7.57;;;6.28;;
36291;SDS011;22327;51.208;6.418;2023-09-18T02:35:54;9.63;;;5.82;;
36291;SDS011;22327;51.208;6.418;2023-09-18T02:38:54;9.50;;;6.03;;
36291;SDS011;22327;51.208;6.418;2023-09-18T02:41:55;9.38;;;6.20;;
36291;SDS011;22327;51.208;6.418;2023-09-18T02:44:56;10.52;;;6.00;;
36291;SDS011;22327;51.208;6.418;2023-09-18T02:47:56;10.23;;;6.32;;
36291;SDS011;22327;51.208;6.418;2023-09-18T02:51:00;10.13;;;5.60;;
36291;SDS011;22327;51.208;6.418;2023-09-18T02:54:02;7.32;;;5.45;;
36291;SDS011;22327;51.208;6.418;2023-09-18T02:57:02;9.00;;;5.07;;
36291;SDS011;22327;51.208;6.418;2023-09-18T03:00:03;6.65;;;5.22;;
36291;SDS011;22327;51.208;6.418;2023-09-18T03:03:04;8.07;;;5.13;;
36291;SDS011;22327;51.208;6.418;2023-09-18T03:06:06;10.48;;;5.22;;
36291;SDS011;22327;51.208;6.418;2023-09-18T03:09:06;7.10;;;4.60;;
36291;SDS011;22327;51.208;6.418;2023-09-18T03:12:07;9.43;;;4.78;;
36291;SDS011;22327;51.208;6.418;2023-09-18T03:15:08;6.60;;;5.18;;
36291;SDS011;22327;51.208;6.418;2023-09-18T03:18:08;7.78;;;4.90;;
36291;SDS011;22327;51.208;6.418;2023-09-18T03:21:09;7.45;;;5.25;;
36291;SDS011;22327;51.208;6.418;2023-09-18T03:24:09;7.30;;;5.03;;
36291;SDS011;22327;51.208;6.418;2023-09-18T03:27:10;7.60;;;5.78;;
36291;SDS011;22327;51.208;6.418;2023-09-18T03:30:10;9.45;;;4.80;;
36291;SDS011;22327;51.208;6.418;2023-09-18T03:33:17;9.88;;;4.90;;
36291;SDS011;22327;51.208;6.418;2023-09-18T03:36:20;10.57;;;4.43;;
36291;SDS011;22327;51.208;6.418;2023-09-18T03:39:22;9.73;;;4.43;;
36291;SDS011;22327;51.208;6.418;2023-09-18T03:42:22;6.57;;;4.00;;
36291;SDS011;22327;51.208;6.418;2023-09-18T03:45:23;7.82;;;4.22;;
36291;SDS011;22327;51.208;6.418;2023-09-18T03:48:23;8.68;;;4.60;;
36291;SDS011;22327;51.208;6.418;2023-09-18T03:51:24;5.90;;;4.30;;
36291;SDS011;22327;51.208;6.418;2023-09-18T03:54:24;6.32;;;4.15;;
36291;SDS011;22327;51.208;6.418;2023-09-18T03:57:25;5.78;;;4.40;;
36291;SDS011;22327;51.208;6.418;2023-09-18T04:00:26;8.25;;;3.85;;
36291;SDS011;22327;51.208;6.418;2023-09-18T04:03:26;5.20;;;3.95;;
36291;SDS011;22327;51.208;6.418;2023-09-18T04:06:35;6.78;;;4.28;;
36291;SDS011;22327;51.208;6.418;2023-09-18T04:09:43;8.30;;;4.00;;
36291;SDS011;22327;51.208;6.418;2023-09-18T04:12:43;6.18;;;4.38;;
36291;SDS011;22327;51.208;6.418;2023-09-18T04:15:46;7.03;;;4.28;;
36291;SDS011;22327;51.208;6.418;2023-09-18T04:18:46;7.70;;;3.95;;
36291;SDS011;22327;51.208;6.418;2023-09-18T04:21:47;7.00;;;3.53;;
36291;SDS011;22327;51.208;6.418;2023-09-18T04:24:48;8.38;;;3.92;;
36291;SDS011;22327;51.208;6.418;2023-09-18T04:27:48;6.03;;;3.45;;
36291;SDS011;22327;51.208;6.418;2023-09-18T04:30:52;6.35;;;3.33;;
36291;SDS011;22327;51.208;6.418;2023-09-18T04:33:53;5.82;;;3.55;;
36291;SDS011;22327;51.208;6.418;2023-09-18T04:36:54;6.15;;;3.35;;
36291;SDS011;22327;51.208;6.418;2023-09-18T04:39:54;7.38;;;3.55;;
36291;SDS011;22327;51.208;6.418;2023-09-18T04:42:55;9.43;;;3.60;;
36291;SDS011;22327;51.208;6.418;2023-09-18T04:45:56;8.13;;;3.90;;
36291;SDS011;22327;51.208;6.418;2023-09-18T04:48:56;4.55;;;2.80;;
36291;SDS011;22327;51.208;6.418;2023-09-18T04:51:57;5.28;;;3.00;;
36291;SDS011;22327;51.208;6.418;2023-09-18T04:54:57;5.18;;;3.08;;
36291;SDS011;22327;51.208;6.418;2023-09-18T04:57:58;6.53;;;3.08;;
36291;SDS011;22327;51.208;6.418;2023-09-18T05:00:59;6.18;;;3.88;;
36291;SDS011;22327;51.208;6.418;2023-09-18T05:04:00;6.68;;;3.33;;
36291;SDS011;22327;51.208;6.418;2023-09-18T05:07:00;8.45;;;3.15;;
36291;SDS011;22327;51.208;6.418;2023-09-18T05:10:02;6.55;;;2.83;;
36291;SDS011;22327;51.208;6.418;2023-09-18T05:13:04;5.38;;;2.80;;
36291;SDS011;22327;51.208;6.418;2023-09-18T05:16:05;7.63;;;2.90;;
36291;SDS011;22327;51.208;6.418;2023-09-18T05:19:05;6.25;;;3.15;;
36291;SDS011;22327;51.208;6.418;2023-09-18T05:22:07;4.70;;;2.65;;
36291;SDS011;22327;51.208;6.418;2023-09-18T05:25:10;4.03;;;3.20;;
36291;SDS011;22327;51.208;6.418;2023-09-18T05:28:11;7.15;;;2.47;;
36291;SDS011;22327;51.208;6.418;2023-09-18T05:31:11;6.25;;;2.47;;
36291;SDS011;22327;51.208;6.418;2023-09-18T05:34:12;6.50;;;2.60;;
36291;SDS011;22327;51.208;6.418;2023-09-18T05:37:12;6.10;;;2.58;;
36291;SDS011;22327;51.208;6.418;2023-09-18T05:40:13;4.75;;;1.88;;
36291;SDS011;22327;51.208;6.418;2023-09-18T05:43:14;6.20;;;2.10;;
36291;SDS011;22327;51.208;6.418;2023-09-18T05:46:14;6.72;;;2.67;;
36291;SDS011;22327;51.208;6.418;2023-09-18T05:49:15;5.05;;;2.33;;
36291;SDS011;22327;51.208;6.418;2023-09-18T05:52:15;3.38;;;2.03;;
36291;SDS011;22327;51.208;6.418;2023-09-18T05:55:16;2.63;;;1.45;;
36291;SDS011;22327;51.208;6.418;2023-09-18T05:58:16;3.20;;;1.58;;
36291;SDS011;22327;51.208;6.418;2023-09-18T06:01:19;4.45;;;2.00;;
36291;SDS011;22327;51.208;6.418;2023-09-18T06:04:20;5.50;;;1.90;;
36291;SDS011;22327;51.208;6.418;2023-09-18T06:07:21;4.32;;;1.90;;
36291;SDS011;22327;51.208;6.418;2023-09-18T06:10:22;4.22;;;1.50;;
36291;SDS011;22327;51.208;6.418;2023-09-18T06:13:24;7.90;;;1.55;;
36291;SDS011;22327;51.208;6.418;2023-09-18T06:16:25;3.15;;;1.65;;
36291;SDS011;22327;51.208;6.418;2023-09-18T06:19:26;3.75;;;1.50;;
36291;SDS011;22327;51.208;6.418;2023-09-18T06:22:26;2.42;;;1.50;;
36291;SDS011;22327;51.208;6.418;2023-09-18T06:25:27;4.97;;;1.27;;
36291;SDS011;22327;51.208;6.418;2023-09-18T06:28:27;3.67;;;1.20;;
36291;SDS011;22327;51.208;6.418;2023-09-18T06:31:28;3.17;;;1.55;;
36291;SDS011;22327;51.208;6.418;2023-09-18T06:34:31;2.67;;;1.17;;
36291;SDS011;22327;51.208;6.418;2023-09-18T06:37:31;3.10;;;1.20;;
36291;SDS011;22327;51.208;6.418;2023-09-18T06:40:32;2.28;;;1.10;;
36291;SDS011;22327;51.208;6.418;2023-09-18T06:43:32;2.60;;;1.52;;
36291;SDS011;22327;51.208;6.418;2023-09-18T06:46:33;3.35;;;1.45;;
36291;SDS011;22327;51.208;6.418;2023-09-18T06:49:33;3.10;;;1.00;;
36291;SDS011;22327;51.208;6.418;2023-09-18T06:52:34;2.60;;;1.20;;
36291;SDS011;22327;51.208;6.418;2023-09-18T06:55:36;2.92;;;2.00;;
36291;SDS011;22327;51.208;6.418;2023-09-18T06:58:37;2.05;;;1.45;;
36291;SDS011;22327;51.208;6.418;2023-09-18T07:01:37;2.70;;;1.42;;
36291;SDS011;22327;51.208;6.418;2023-09-18T07:04:39;3.25;;;1.10;;
36291;SDS011;22327;51.208;6.418;2023-09-18T07:07:44;4.30;;;1.98;;
36291;SDS011;22327;51.208;6.418;2023-09-18T07:10:45;2.30;;;1.20;;
36291;SDS011;22327;51.208;6.418;2023-09-18T07:13:45;2.95;;;1.00;;
36291;SDS011;22327;51.208;6.418;2023-09-18T07:16:46;1.45;;;0.70;;
36291;SDS011;22327;51.208;6.418;2023-09-18T07:19:47;2.50;;;1.02;;
36291;SDS011;22327;51.208;6.418;2023-09-18T07:22:47;3.55;;;1.10;;
36291;SDS011;22327;51.208;6.418;2023-09-18T07:25:48;1.77;;;0.80;;
36291;SDS011;22327;51.208;6.418;2023-09-18T07:28:49;3.33;;;0.88;;
36291;SDS011;22327;51.208;6.418;2023-09-18T07:31:49;2.65;;;0.85;;
36291;SDS011;22327;51.208;6.418;2023-09-18T07:34:50;2.53;;;1.00;;
36291;SDS011;22327;51.208;6.418;2023-09-18T07:37:51;3.10;;;1.00;;
36291;SDS011;22327;51.208;6.418;2023-09-18T07:40:51;3.13;;;1.33;;
36291;SDS011;22327;51.208;6.418;2023-09-18T07:43:52;1.65;;;0.95;;
36291;SDS011;22327;51.208;6.418;2023-09-18T07:46:52;2.03;;;1.08;;
36291;SDS011;22327;51.208;6.418;2023-09-18T07:49:55;2.33;;;0.90;;
36291;SDS011;22327;51.208;6.418;2023-09-18T07:52:55;2.25;;;0.70;;
36291;SDS011;22327;51.208;6.418;2023-09-18T07:55:56;2.13;;;1.02;;
36291;SDS011;22327;51.208;6.418;2023-09-18T07:58:58;4.32;;;0.95;;
36291;SDS011;22327;51.208;6.418;2023-09-18T08:01:59;5.80;;;1.23;;
36291;SDS011;22327;51.208;6.418;2023-09-18T08:04:59;1.88;;;0.80;;
36291;SDS011;22327;51.208;6.418;2023-09-18T08:08:01;2.83;;;1.00;;
36291;SDS011;22327;51.208;6.418;2023-09-18T08:11:08;2.78;;;1.23;;
36291;SDS011;22327;51.208;6.418;2023-09-18T08:14:09;1.75;;;1.02;;
36291;SDS011;22327;51.208;6.418;2023-09-18T08:17:09;1.77;;;0.80;;
36291;SDS011;22327;51.208;6.418;2023-09-18T08:20:10;2.55;;;0.77;;
36291;SDS011;22327;51.208;6.418;2023-09-18T08:23:14;1.63;;;0.90;;
36291;SDS011;22327;51.208;6.418;2023-09-18T08:26:14;4.32;;;0.60;;
36291;SDS011;22327;51.208;6.418;2023-09-18T08:29:16;2.33;;;1.10;;
36291;SDS011;22327;51.208;6.418;2023-09-18T08:32:17;1.02;;;0.77;;
36291;SDS011;22327;51.208;6.418;2023-09-18T08:35:18;2.28;;;0.90;;
36291;SDS011;22327;51.208;6.418;2023-09-18T08:38:18;2.17;;;0.90;;
36291;SDS011;22327;51.208;6.418;2023-09-18T08:41:19;1.63;;;0.80;;
36291;SDS011;22327;51.208;6.418;2023-09-18T08:44:20;7.60;;;3.22;;
36291;SDS011;22327;51.208;6.418;2023-09-18T08:47:27;64.65;;;40.90;;
36291;SDS011;22327;51.208;6.418;2023-09-18T08:50:28;58.35;;;41.67;;
36291;SDS011;22327;51.208;6.418;2023-09-18T08:53:30;42.40;;;30.77;;
36291;SDS011;22327;51.208;6.418;2023-09-18T08:56:32;19.80;;;15.27;;
36291;SDS011;22327;51.208;6.418;2023-09-18T08:59:34;6.45;;;3.40;;
36291;SDS011;22327;51.208;6.418;2023-09-18T09:02:36;6.38;;;1.77;;
36291;SDS011;22327;51.208;6.418;2023-09-18T09:05:36;2.60;;;1.20;;
36291;SDS011;22327;51.208;6.418;2023-09-18T09:08:37;3.33;;;1.00;;
36291;SDS011;22327;51.208;6.418;2023-09-18T09:11:38;1.48;;;0.85;;
36291;SDS011;22327;51.208;6.418;2023-09-18T09:14:39;3.13;;;0.73;;
36291;SDS011;22327;51.208;6.418;2023-09-18T09:17:44;2.05;;;0.93;;
36291;SDS011;22327;51.208;6.418;2023-09-18T09:21:02;1.20;;;0.70;;
36291;SDS011;22327;51.208;6.418;2023-09-18T09:24:05;2.85;;;1.00;;
36291;SDS011;22327;51.208;6.418;2023-09-18T09:27:05;1.33;;;0.80;;
36291;SDS011;22327;51.208;6.418;2023-09-18T09:30:06;2.38;;;1.10;;
36291;SDS011;22327;51.208;6.418;2023-09-18T09:33:10;2.75;;;0.80;;
36291;SDS011;22327;51.208;6.418;2023-09-18T09:36:12;3.15;;;1.08;;
36291;SDS011;22327;51.208;6.418;2023-09-18T09:39:15;7.57;;;5.28;;
36291;SDS011;22327;51.208;6.418;2023-09-18T09:42:18;40.45;;;30.63;;
36291;SDS011;22327;51.208;6.418;2023-09-18T09:45:22;36.97;;;28.58;;
36291;SDS011;22327;51.208;6.418;2023-09-18T09:48:23;5.82;;;2.85;;
36291;SDS011;22327;51.208;6.418;2023-09-18T09:51:25;13.73;;;10.45;;
36291;SDS011;22327;51.208;6.418;2023-09-18T09:54:32;14.55;;;8.57;;
36291;SDS011;22327;51.208;6.418;2023-09-18T09:57:46;7.82;;;5.68;;
36291;SDS011;22327;51.208;6.418;2023-09-18T10:00:51;5.30;;;2.83;;
36291;SDS011;22327;51.208;6.418;2023-09-18T10:03:55;2.42;;;1.00;;
36291;SDS011;22327;51.208;6.418;2023-09-18T10:06:57;4.30;;;1.88;;
36291;SDS011;22327;51.208;6.418;2023-09-18T10:10:01;3.88;;;1.45;;
36291;SDS011;22327;51.208;6.418;2023-09-18T10:13:03;2.97;;;1.23;;
36291;SDS011;22327;51.208;6.418;2023-09-18T10:16:09;4.03;;;1.50;;
36291;SDS011;22327;51.208;6.418;2023-09-18T10:19:21;2.10;;;1.00;;
36291;SDS011;22327;51.208;6.418;2023-09-18T10:22:40;9.63;;;6.72;;
36291;SDS011;22327;51.208;6.418;2023-09-18T10:25:46;17.02;;;12.57;;
36291;SDS011;22327;51.208;6.418;2023-09-18T10:28:48;21.40;;;16.70;;
36291;SDS011;22327;51.208;6.418;2023-09-18T10:31:53;7.32;;;5.93;;
36291;SDS011;22327;51.208;6.418;2023-09-18T10:34:54;6.95;;;4.85;;
36291;SDS011;22327;51.208;6.418;2023-09-18T10:37:54;4.43;;;2.35;;
36291;SDS011;22327;51.208;6.418;2023-09-18T10:40:57;3.47;;;1.83;;
36291;SDS011;22327;51.208;6.418;2023-09-18T10:43:58;1.98;;;1.05;;
36291;SDS011;22327;51.208;6.418;2023-09-18T10:47:01;3.28;;;1.00;;
36291;SDS011;22327;51.208;6.418;2023-09-18T10:50:06;1.95;;;1.23;;
36291;SDS011;22327;51.208;6.418;2023-09-18T10:53:08;2.60;;;1.10;;
36291;SDS011;22327;51.208;6.418;2023-09-18T10:56:08;1.52;;;1.23;;
36291;SDS011;22327;51.208;6.418;2023-09-18T10:59:09;3.10;;;1.27;;
36291;SDS011;22327;51.208;6.418;2023-09-18T11:02:09;3.70;;;1.17;;
36291;SDS011;22327;51.208;6.418;2023-09-18T11:05:10;2.88;;;1.52;;
36291;SDS011;22327;51.208;6.418;2023-09-18T11:08:28;2.25;;;1.30;;
36291;SDS011;22327;51.208;6.418;2023-09-18T11:11:30;3.00;;;1.15;;
36291;SDS011;22327;51.208;6.418;2023-09-18T11:14:48;2.13;;;1.20;;
36291;SDS011;22327;51.208;6.418;2023-09-18T11:17:59;4.50;;;1.08;;
36291;SDS011;22327;51.208;6.418;2023-09-18T11:21:09;2.72;;;1.20;;
36291;SDS011;22327;51.208;6.418;2023-09-18T11:24:18;2.78;;;0.95;;
36291;SDS011;22327;51.208;6.418;2023-09-18T11:27:24;5.07;;;1.10;;
36291;SDS011;22327;51.208;6.418;2023-09-18T11:30:25;2.53;;;1.10;;
36291;SDS011;22327;51.208;6.418;2023-09-18T11:33:33;2.28;;;1.00;;
36291;SDS011;22327;51.208;6.418;2023-09-18T11:36:35;3.55;;;1.35;;
36291;SDS011;22327;51.208;6.418;2023-09-18T11:39:39;3.45;;;1.08;;
36291;SDS011;22327;51.208;6.418;2023-09-18T11:42:40;1.35;;;1.15;;
36291;SDS011;22327;51.208;6.418;2023-09-18T11:46:21;2.47;;;1.13;;
36291;SDS011;22327;51.208;6.418;2023-09-18T11:49:23;2.38;;;1.20;;
36291;SDS011;22327;51.208;6.418;2023-09-18T11:52:28;1.77;;;1.15;;
36291;SDS011;22327;51.208;6.418;2023-09-18T11:55:29;2.90;;;1.00;;
36291;SDS011;22327;51.208;6.418;2023-09-18T11:58:30;2.67;;;1.05;;
36291;SDS011;22327;51.208;6.418;2023-09-18T12:01:44;3.53;;;1.05;;
36291;SDS011;22327;51.208;6.418;2023-09-18T12:05:10;3.03;;;1.20;;
36291;SDS011;22327;51.208;6.418;2023-09-18T12:08:15;5.05;;;1.52;;
36291;SDS011;22327;51.208;6.418;2023-09-18T12:11:16;1.60;;;1.10;;
36291;SDS011;22327;51.208;6.418;2023-09-18T12:14:20;1.58;;;1.20;;
36291;SDS011;22327;51.208;6.418;2023-09-18T12:17:20;1.90;;;1.17;;
36291;SDS011;22327;51.208;6.418;2023-09-18T12:20:21;2.35;;;1.02;;
36291;SDS011;22327;51.208;6.418;2023-09-18T12:23:21;1.40;;;0.95;;
36291;SDS011;22327;51.208;6.418;2023-09-18T12:26:24;2.42;;;0.98;;
36291;SDS011;22327;51.208;6.418;2023-09-18T12:29:26;3.40;;;1.42;;
36291;SDS011;22327;51.208;6.418;2023-09-18T12:32:26;1.52;;;0.80;;
36291;SDS011;22327;51.208;6.418;2023-09-18T12:35:27;1.67;;;0.93;;
36291;SDS011;22327;51.208;6.418;2023-09-18T12:38:29;2.78;;;1.00;;
36291;SDS011;22327;51.208;6.418;2023-09-18T12:41:30;3.22;;;1.77;;
36291;SDS011;22327;51.208;6.418;2023-09-18T12:44:32;2.60;;;1.23;;
36291;SDS011;22327;51.208;6.418;2023-09-18T12:47:32;2.42;;;1.55;;
36291;SDS011;22327;51.208;6.418;2023-09-18T12:50:33;2.45;;;1.30;;
36291;SDS011;22327;51.208;6.418;2023-09-18T12:53:37;2.25;;;1.60;;
36291;SDS011;22327;51.208;6.418;2023-09-18T12:56:41;2.83;;;1.52;;
36291;SDS011;22327;51.208;6.418;2023-09-18T13:02:44;3.05;;;1.60;;
36291;SDS011;22327;51.208;6.418;2023-09-18T13:05:45;2.75;;;1.40;;
36291;SDS011;22327;51.208;6.418;2023-09-18T13:08:47;3.58;;;1.92;;
36291;SDS011;22327;51.208;6.418;2023-09-18T13:11:53;2.58;;;1.50;;
36291;SDS011;22327;51.208;6.418;2023-09-18T13:15:01;3.50;;;2.10;;
36291;SDS011;22327;51.208;6.418;2023-09-18T13:18:10;6.15;;;2.15;;
36291;SDS011;22327;51.208;6.418;2023-09-18T13:21:12;3.47;;;2.13;;
36291;SDS011;22327;51.208;6.418;2023-09-18T13:24:29;6.05;;;2.45;;
36291;SDS011;22327;51.208;6.418;2023-09-18T13:27:30;5.30;;;2.63;;
36291;SDS011;22327;51.208;6.418;2023-09-18T13:30:31;4.05;;;1.67;;
36291;SDS011;22327;51.208;6.418;2023-09-18T13:33:38;2.05;;;1.40;;
36291;SDS011;22327;51.208;6.418;2023-09-18T13:36:40;3.20;;;1.77;;
36291;SDS011;22327;51.208;6.418;2023-09-18T13:39:41;1.90;;;1.48;;
36291;SDS011;22327;51.208;6.418;2023-09-18T13:42:42;3.65;;;2.67;;
36291;SDS011;22327;51.208;6.418;2023-09-18T13:45:42;2.40;;;1.70;;
36291;SDS011;22327;51.208;6.418;2023-09-18T13:48:43;6.07;;;4.22;;
36291;SDS011;22327;51.208;6.418;2023-09-18T13:51:44;8.65;;;6.88;;
36291;SDS011;22327;51.208;6.418;2023-09-18T13:54:45;4.40;;;2.90;;
36291;SDS011;22327;51.208;6.418;2023-09-18T13:57:51;3.22;;;1.90;;
36291;SDS011;22327;51.208;6.418;2023-09-18T14:00:51;2.88;;;1.48;;
36291;SDS011;22327;51.208;6.418;2023-09-18T14:03:53;2.10;;;1.10;;
36291;SDS011;22327;51.208;6.418;2023-09-18T14:06:53;3.45;;;0.93;;
36291;SDS011;22327;51.208;6.418;2023-09-18T14:09:54;2.55;;;0.95;;
36291;SDS011;22327;51.208;6.418;2023-09-18T14:12:55;4.88;;;1.15;;
36291;SDS011;22327;51.208;6.418;2023-09-18T14:15:57;2.15;;;1.00;;
36291;SDS011;22327;51.208;6.418;2023-09-18T14:18:58;1.55;;;0.90;;
36291;SDS011;22327;51.208;6.418;2023-09-18T14:21:59;1.23;;;1.10;;
36291;SDS011;22327;51.208;6.418;2023-09-18T14:25:03;1.20;;;1.10;;
36291;SDS011;22327;51.208;6.418;2023-09-18T14:28:05;1.00;;;0.90;;
36291;SDS011;22327;51.208;6.418;2023-09-18T14:31:06;1.80;;;1.05;;
36291;SDS011;22327;51.208;6.418;2023-09-18T14:34:06;1.23;;;0.80;;
36291;SDS011;22327;51.208;6.418;2023-09-18T14:37:08;2.00;;;1.02;;
36291;SDS011;22327;51.208;6.418;2023-09-18T14:40:09;1.10;;;0.70;;
36291;SDS011;22327;51.208;6.418;2023-09-18T14:43:11;1.23;;;0.88;;
36291;SDS011;22327;51.208;6.418;2023-09-18T14:46:12;1.90;;;1.10;;
36291;SDS011;22327;51.208;6.418;2023-09-18T14:49:13;2.72;;;1.20;;
36291;SDS011;22327;51.208;6.418;2023-09-18T14:52:14;3.28;;;1.20;;
36291;SDS011;22327;51.208;6.418;2023-09-18T14:55:16;2.33;;;0.90;;
36291;SDS011;22327;51.208;6.418;2023-09-18T14:58:16;1.92;;;1.20;;
36291;SDS011;22327;51.208;6.418;2023-09-18T15:01:18;1.83;;;0.82;;
36291;SDS011;22327;51.208;6.418;2023-09-18T15:04:20;2.55;;;0.95;;
36291;SDS011;22327;51.208;6.418;2023-09-18T15:07:22;3.25;;;1.05;;
36291;SDS011;22327;51.208;6.418;2023-09-18T15:10:22;2.53;;;0.98;;
36291;SDS011;22327;51.208;6.418;2023-09-18T15:13:23;3.53;;;0.98;;
36291;SDS011;22327;51.208;6.418;2023-09-18T15:16:23;2.75;;;1.20;;
36291;SDS011;22327;51.208;6.418;2023-09-18T15:19:24;1.90;;;1.00;;
36291;SDS011;22327;51.208;6.418;2023-09-18T15:22:25;2.40;;;1.05;;
36291;SDS011;22327;51.208;6.418;2023-09-18T15:25:25;4.55;;;1.20;;
36291;SDS011;22327;51.208;6.418;2023-09-18T15:28:26;2.50;;;0.98;;
36291;SDS011;22327;51.208;6.418;2023-09-18T15:31:28;2.67;;;1.17;;
36291;SDS011;22327;51.208;6.418;2023-09-18T15:34:29;1.55;;;1.00;;
36291;SDS011;22327;51.208;6.418;2023-09-18T15:37:30;1.80;;;1.20;;
36291;SDS011;22327;51.208;6.418;2023-09-18T15:40:30;2.58;;;1.08;;
36291;SDS011;22327;51.208;6.418;2023-09-18T15:43:31;2.50;;;1.15;;
36291;SDS011;22327;51.208;6.418;2023-09-18T15:46:33;1.35;;;0.80;;
36291;SDS011;22327;51.208;6.418;2023-09-18T15:49:34;3.63;;;0.90;;
36291;SDS011;22327;51.208;6.418;2023-09-18T15:52:35;1.40;;;1.00;;
36291;SDS011;22327;51.208;6.418;2023-09-18T15:55:36;1.65;;;0.93;;
36291;SDS011;22327;51.208;6.418;2023-09-18T15:58:36;1.73;;;1.15;;
36291;SDS011;22327;51.208;6.418;2023-09-18T16:01:37;2.08;;;1.20;;
36291;SDS011;22327;51.208;6.418;2023-09-18T16:04:38;1.63;;;1.08;;
36291;SDS011;22327;51.208;6.418;2023-09-18T16:07:39;3.65;;;1.10;;
36291;SDS011;22327;51.208;6.418;2023-09-18T16:10:41;2.28;;;1.10;;
36291;SDS011;22327;51.208;6.418;2023-09-18T16:13:42;3.97;;;1.00;;
36291;SDS011;22327;51.208;6.418;2023-09-18T16:16:43;2.28;;;1.00;;
36291;SDS011;22327;51.208;6.418;2023-09-18T16:19:44;2.47;;;1.02;;
36291;SDS011;22327;51.208;6.418;2023-09-18T16:22:44;2.08;;;1.27;;
36291;SDS011;22327;51.208;6.418;2023-09-18T16:25:46;2.53;;;1.05;;
36291;SDS011;22327;51.208;6.418;2023-09-18T16:28:47;1.95;;;1.05;;
36291;SDS011;22327;51.208;6.418;2023-09-18T16:31:48;2.92;;;1.20;;
36291;SDS011;22327;51.208;6.418;2023-09-18T16:34:48;2.67;;;1.08;;
36291;SDS011;22327;51.208;6.418;2023-09-18T16:37:49;4.00;;;1.00;;
36291;SDS011;22327;51.208;6.418;2023-09-18T16:40:50;2.53;;;1.10;;
36291;SDS011;22327;51.208;6.418;2023-09-18T16:43:50;2.60;;;1.23;;
36291;SDS011;22327;51.208;6.418;2023-09-18T16:46:51;2.50;;;0.93;;
36291;SDS011;22327;51.208;6.418;2023-09-18T16:49:52;1.15;;;1.05;;
36291;SDS011;22327;51.208;6.418;2023-09-18T16:52:52;1.52;;;1.10;;
36291;SDS011;22327;51.208;6.418;2023-09-18T16:55:53;3.95;;;1.08;;
36291;SDS011;22327;51.208;6.418;2023-09-18T16:58:53;2.45;;;0.90;;
36291;SDS011;22327;51.208;6.418;2023-09-18T17:01:54;1.90;;;0.90;;
36291;SDS011;22327;51.208;6.418;2023-09-18T17:04:54;1.27;;;0.90;;
36291;SDS011;22327;51.208;6.418;2023-09-18T17:07:55;9.60;;;1.50;;
36291;SDS011;22327;51.208;6.418;2023-09-18T17:10:55;6.80;;;1.52;;
36291;SDS011;22327;51.208;6.418;2023-09-18T17:13:57;5.10;;;1.38;;
36291;SDS011;22327;51.208;6.418;2023-09-18T17:16:58;1.88;;;0.90;;
36291;SDS011;22327;51.208;6.418;2023-09-18T17:19:59;3.97;;;1.15;;
36291;SDS011;22327;51.208;6.418;2023-09-18T17:22:59;2.92;;;1.20;;
36291;SDS011;22327;51.208;6.418;2023-09-18T17:26:00;2.20;;;1.20;;
36291;SDS011;22327;51.208;6.418;2023-09-18T17:29:01;3.58;;;1.60;;
36291;SDS011;22327;51.208;6.418;2023-09-18T17:32:03;3.08;;;1.60;;
36291;SDS011;22327;51.208;6.418;2023-09-18T17:35:03;4.63;;;1.73;;
36291;SDS011;22327;51.208;6.418;2023-09-18T17:38:04;3.42;;;2.10;;
36291;SDS011;22327;51.208;6.418;2023-09-18T17:41:05;5.10;;;2.05;;
36291;SDS011;22327;51.208;6.418;2023-09-18T17:44:06;2.53;;;1.60;;
36291;SDS011;22327;51.208;6.418;2023-09-18T17:47:07;3.72;;;1.90;;
36291;SDS011;22327;51.208;6.418;2023-09-18T17:50:07;2.22;;;1.50;;
36291;SDS011;22327;51.208;6.418;2023-09-18T17:53:08;2.20;;;1.35;;
36291;SDS011;22327;51.208;6.418;2023-09-18T17:56:09;1.77;;;1.50;;
36291;SDS011;22327;51.208;6.418;2023-09-18T17:59:11;5.65;;;1.92;;
36291;SDS011;22327;51.208;6.418;2023-09-18T18:02:12;6.07;;;1.65;;
36291;SDS011;22327;51.208;6.418;2023-09-18T18:05:12;2.00;;;1.48;;
36291;SDS011;22327;51.208;6.418;2023-09-18T18:08:13;3.70;;;1.73;;
36291;SDS011;22327;51.208;6.418;2023-09-18T18:11:13;3.40;;;1.73;;
36291;SDS011;22327;51.208;6.418;2023-09-18T18:14:14;4.13;;;1.65;;
36291;SDS011;22327;51.208;6.418;2023-09-18T18:17:15;3.60;;;1.63;;
36291;SDS011;22327;51.208;6.418;2023-09-18T18:20:16;4.45;;;2.35;;